createdAt,value
2019-01-23T00:00:40.825Z,22.30
2019-01-23T00:03:09.848Z,22.53
2019-01-23T00:05:38.441Z,23.00
2019-01-23T00:08:07.394Z,21.60
2019-01-23T00:10:36.243Z,23.43
2019-01-23T00:13:04.966Z,22.23
2019-01-23T00:15:33.501Z,22.37
2019-01-23T00:18:02.394Z,23.40
2019-01-23T00:20:32.289Z,22.83
2019-01-23T00:23:01.029Z,24.27
2019-01-23T00:25:29.871Z,23.60
2019-01-23T00:27:59.286Z,24.27
2019-01-23T00:30:28.164Z,23.17
2019-01-23T00:32:57.093Z,24.80
2019-01-23T00:35:26.141Z,24.23
2019-01-23T00:37:54.717Z,24.93
2019-01-23T00:40:23.613Z,23.33
2019-01-23T00:42:52.533Z,24.17
2019-01-23T00:45:21.394Z,23.80
2019-01-23T00:47:49.941Z,24.13
2019-01-23T00:50:19.259Z,23.07
2019-01-23T00:52:47.809Z,23.83
2019-01-23T00:55:17.805Z,22.40
2019-01-23T00:57:46.389Z,22.60
2019-01-23T01:00:18.329Z,22.87
2019-01-23T01:02:47.302Z,22.77
2019-01-23T01:05:16.789Z,22.93
2019-01-23T01:07:45.346Z,22.33
2019-01-23T01:10:16.926Z,21.93
2019-01-23T01:12:45.800Z,23.43
2019-01-23T01:15:17.053Z,23.03
2019-01-23T01:17:45.862Z,20.77
2019-01-23T01:20:16.257Z,23.10
2019-01-23T01:22:45.574Z,22.47
2019-01-23T01:25:16.547Z,23.17
2019-01-23T01:27:45.189Z,23.00
2019-01-23T01:30:19.186Z,22.60
2019-01-23T01:32:47.689Z,23.10
2019-01-23T01:35:16.586Z,22.87
2019-01-23T01:37:45.513Z,23.20
2019-01-23T01:40:16.902Z,24.30
2019-01-23T01:42:45.551Z,22.70
2019-01-23T01:45:15.665Z,23.83
2019-01-23T01:47:44.664Z,23.10
2019-01-23T01:50:17.950Z,23.63
2019-01-23T01:52:46.741Z,24.50
2019-01-23T01:55:15.363Z,23.77
2019-01-23T01:57:44.882Z,22.73
2019-01-23T02:00:16.757Z,24.33
2019-01-23T02:02:45.338Z,24.60
2019-01-23T02:05:14.055Z,23.93
2019-01-23T02:07:43.119Z,25.67
2019-01-23T02:10:17.053Z,26.00
2019-01-23T02:12:45.939Z,26.87
2019-01-23T02:15:15.987Z,25.10
2019-01-23T02:17:44.743Z,27.63
2019-01-23T02:20:19.052Z,25.50
2019-01-23T02:22:47.874Z,26.20
2019-01-23T02:25:16.628Z,24.57
2019-01-23T02:27:46.178Z,26.03
2019-01-23T02:30:19.571Z,24.60
2019-01-23T02:32:48.187Z,25.40
2019-01-23T02:35:17.241Z,24.80
2019-01-23T02:37:46.253Z,27.07
2019-01-23T02:40:20.488Z,26.27
2019-01-23T02:42:49.602Z,26.83
2019-01-23T02:45:18.413Z,26.93
2019-01-23T02:47:47.138Z,26.20
2019-01-23T02:50:15.848Z,26.60
2019-01-23T02:52:44.564Z,26.43
2019-01-23T02:55:13.563Z,25.40
2019-01-23T02:57:42.134Z,27.30
2019-01-23T03:00:13.215Z,25.60
2019-01-23T03:02:41.975Z,25.77
2019-01-23T03:05:13.172Z,26.43
2019-01-23T03:07:42.022Z,28.17
2019-01-23T03:10:13.606Z,26.47
2019-01-23T03:12:42.494Z,26.37
2019-01-23T03:15:13.644Z,27.20
2019-01-23T03:17:42.209Z,25.23
2019-01-23T03:20:14.070Z,26.43
2019-01-23T03:22:42.672Z,25.23
2019-01-23T03:25:12.835Z,25.77
2019-01-23T03:27:41.555Z,22.33
2019-01-23T03:30:18.792Z,25.67
2019-01-23T03:32:47.446Z,27.07
2019-01-23T03:35:16.390Z,26.43
2019-01-23T03:37:44.979Z,26.87
2019-01-23T03:40:18.914Z,27.53
2019-01-23T03:42:47.398Z,25.80
2019-01-23T03:45:17.514Z,25.43
2019-01-23T03:47:46.535Z,24.00
2019-01-23T03:50:17.493Z,28.70
2019-01-23T03:52:46.395Z,25.40
2019-01-23T03:55:17.065Z,22.00
2019-01-23T03:57:46.138Z,25.77
2019-01-23T04:00:21.794Z,23.57
2019-01-23T04:02:51.885Z,25.93
2019-01-23T04:05:20.931Z,26.17
2019-01-23T04:07:49.536Z,24.87
2019-01-23T04:10:18.672Z,27.00
2019-01-23T04:12:47.226Z,25.50
2019-01-23T04:15:17.096Z,24.57
2019-01-23T04:17:46.031Z,23.93
2019-01-23T04:20:19.531Z,24.87
2019-01-23T04:22:48.342Z,22.20
2019-01-23T04:25:16.929Z,26.13
2019-01-23T04:27:45.455Z,26.13
2019-01-23T04:30:19.067Z,25.23
2019-01-23T04:32:47.970Z,13.30
2019-01-23T04:35:16.428Z,25.50
2019-01-23T04:37:45.326Z,24.83
2019-01-23T04:40:15.113Z,25.30
2019-01-23T04:42:43.937Z,24.47
2019-01-23T04:45:15.005Z,23.60
2019-01-23T04:47:43.648Z,23.53
2019-01-23T04:50:14.685Z,23.80
2019-01-23T04:53:01.566Z,27.13
2019-01-23T04:55:30.511Z,26.37
2019-01-23T04:57:59.275Z,25.40
2019-01-23T05:00:29.556Z,29.57
2019-01-23T05:02:58.300Z,26.77
2019-01-23T05:05:27.064Z,26.13
2019-01-23T05:07:55.890Z,26.53
2019-01-23T05:10:24.538Z,25.77
2019-01-23T05:12:52.997Z,26.63
2019-01-23T05:15:21.825Z,24.90
2019-01-23T05:17:50.264Z,26.80
2019-01-23T05:20:18.756Z,27.47
2019-01-23T05:22:47.576Z,28.87
2019-01-23T05:25:16.056Z,25.67
2019-01-23T05:27:44.620Z,27.27
2019-01-23T05:30:22.006Z,26.10
2019-01-23T05:32:50.904Z,26.90
2019-01-23T05:35:19.432Z,30.87
2019-01-23T05:37:48.031Z,30.30
2019-01-23T05:40:17.720Z,30.37
2019-01-23T05:42:46.413Z,30.43
2019-01-23T05:45:15.263Z,34.03
2019-01-23T05:47:44.121Z,31.83
2019-01-23T05:50:15.882Z,29.57
2019-01-23T05:52:44.360Z,30.80
2019-01-23T05:55:13.585Z,31.00
2019-01-23T05:57:42.387Z,30.97
2019-01-23T06:00:16.656Z,32.47
2019-01-23T06:02:45.460Z,31.53
2019-01-23T06:05:14.717Z,29.40
2019-01-23T06:07:43.296Z,31.47
2019-01-23T06:10:12.126Z,31.23
2019-01-23T06:12:40.996Z,32.00
2019-01-23T06:15:18.791Z,31.40
2019-01-23T06:17:47.272Z,31.77
2019-01-23T06:20:18.997Z,31.90
2019-01-23T06:22:47.480Z,30.33
2019-01-23T06:25:16.392Z,33.17
2019-01-23T06:27:45.188Z,32.83
2019-01-23T06:30:19.030Z,27.00
2019-01-23T06:32:47.572Z,32.73
2019-01-23T06:35:16.272Z,30.37
2019-01-23T06:37:44.879Z,33.60
2019-01-23T06:40:15.512Z,27.63
2019-01-23T06:42:44.044Z,29.17
2019-01-23T06:45:14.723Z,27.73
2019-01-23T06:47:43.704Z,27.30
2019-01-23T06:50:14.783Z,34.90
2019-01-23T06:52:43.607Z,34.17
2019-01-23T06:55:12.220Z,36.60
2019-01-23T06:57:40.677Z,32.77
2019-01-23T07:00:20.932Z,35.03
2019-01-23T07:02:49.556Z,35.90
2019-01-23T07:05:18.216Z,35.77
2019-01-23T07:07:46.790Z,37.90
2019-01-23T07:10:23.486Z,36.83
2019-01-23T07:12:52.280Z,39.27
2019-01-23T07:15:21.016Z,36.70
2019-01-23T07:17:49.816Z,33.53
2019-01-23T07:20:23.720Z,37.90
2019-01-23T07:22:52.684Z,28.23
2019-01-23T07:25:21.488Z,37.47
2019-01-23T07:27:50.033Z,32.60
2019-01-23T07:30:24.384Z,33.80
2019-01-23T07:32:52.538Z,34.33
2019-01-23T07:35:21.453Z,36.23
2019-01-23T07:37:49.992Z,34.73
2019-01-23T07:40:18.478Z,34.07
2019-01-23T07:42:47.308Z,34.43
2019-01-23T07:45:19.077Z,31.50
2019-01-23T07:47:48.033Z,32.20
2019-01-23T07:50:16.729Z,34.30
2019-01-23T07:52:46.004Z,33.03
2019-01-23T07:55:18.996Z,33.43
2019-01-23T07:57:47.825Z,29.07
2019-01-23T08:00:19.257Z,34.23
2019-01-23T08:02:48.030Z,31.43
2019-01-23T08:05:20.487Z,32.13
2019-01-23T08:07:49.181Z,34.53
2019-01-23T08:10:21.261Z,35.57
2019-01-23T08:12:50.165Z,35.03
2019-01-23T08:15:24.565Z,34.87
2019-01-23T08:17:53.095Z,34.50
2019-01-23T08:20:28.794Z,35.07
2019-01-23T08:22:57.953Z,33.80
2019-01-23T08:25:27.584Z,35.77
2019-01-23T08:27:56.617Z,36.37
2019-01-23T08:30:26.303Z,35.87
2019-01-23T08:32:55.561Z,36.97
2019-01-23T08:35:24.817Z,35.03
2019-01-23T08:37:53.715Z,42.90
2019-01-23T08:40:22.637Z,35.20
2019-01-23T08:42:51.233Z,35.13
2019-01-23T08:45:19.750Z,32.90
2019-01-23T08:47:48.259Z,32.70
2019-01-23T08:50:22.327Z,33.50
2019-01-23T08:52:51.117Z,33.23
2019-01-23T08:55:19.898Z,34.77
2019-01-23T08:57:48.690Z,32.60
2019-01-23T09:00:18.432Z,28.60
2019-01-23T09:02:47.209Z,33.47
2019-01-23T09:05:16.069Z,32.90
2019-01-23T09:07:44.670Z,30.53
2019-01-23T09:10:19.550Z,30.33
2019-01-23T09:12:48.270Z,31.13
2019-01-23T09:15:17.797Z,31.30
2019-01-23T09:17:46.725Z,33.40
2019-01-23T09:20:17.834Z,30.97
2019-01-23T09:22:46.721Z,31.50
2019-01-23T09:25:21.665Z,32.50
2019-01-23T09:27:50.416Z,32.07
2019-01-23T09:30:27.659Z,32.13
2019-01-23T09:33:23.721Z,30.93
2019-01-23T09:36:04.103Z,31.17
2019-01-23T09:38:41.513Z,30.93
2019-01-23T09:41:25.332Z,31.83
2019-01-23T09:44:03.008Z,33.57
2019-01-23T09:46:43.663Z,32.87
2019-01-23T09:49:20.931Z,30.87
2019-01-23T09:52:10.874Z,32.10
2019-01-23T09:54:39.715Z,31.50
2019-01-23T09:57:08.501Z,31.93
2019-01-23T09:59:36.989Z,31.27
2019-01-23T10:02:05.769Z,31.97
2019-01-23T10:04:34.560Z,30.73
2019-01-23T10:07:03.470Z,31.30
2019-01-23T10:09:31.983Z,30.67
2019-01-23T10:12:00.463Z,31.27
2019-01-23T10:14:29.012Z,32.27
2019-01-23T10:16:57.910Z,30.33
2019-01-23T10:19:26.467Z,31.00
2019-01-23T10:21:55.340Z,32.00
2019-01-23T10:24:24.131Z,30.50
2019-01-23T10:26:52.941Z,31.80
2019-01-23T10:29:21.722Z,29.70
2019-01-23T10:31:50.724Z,31.13
2019-01-23T10:34:19.329Z,31.83
2019-01-23T10:36:47.895Z,29.53
2019-01-23T10:39:16.358Z,29.48
2019-01-23T10:41:44.814Z,29.10
2019-01-23T10:44:13.353Z,29.95
2019-01-23T10:46:42.207Z,30.10
2019-01-23T10:49:10.711Z,31.27
2019-01-23T10:51:41.216Z,31.65
2019-01-23T10:57:50.519Z,29.98
2019-01-23T11:00:21.573Z,30.40
2019-01-23T11:02:50.202Z,30.60
2019-01-23T11:05:21.204Z,28.20
2019-01-23T11:07:50.142Z,29.75
2019-01-23T11:10:24.372Z,28.47
2019-01-23T11:12:53.361Z,28.73
2019-01-23T11:15:21.939Z,30.65
2019-01-23T11:17:50.711Z,29.77
2019-01-23T11:20:20.852Z,31.35
2019-01-23T11:22:49.810Z,30.77
2019-01-23T11:25:18.505Z,31.35
2019-01-23T11:27:47.303Z,30.00
2019-01-23T11:30:21.878Z,32.00
2019-01-23T11:32:50.662Z,29.35
2019-01-23T11:35:19.344Z,29.50
2019-01-23T11:37:47.922Z,30.20
2019-01-23T11:40:22.096Z,29.67
2019-01-23T11:42:51.042Z,30.92
2019-01-23T11:45:19.564Z,30.05
2019-01-23T11:47:48.150Z,30.97
2019-01-23T11:50:21.305Z,32.80
2019-01-23T11:52:48.545Z,30.05
2019-01-23T11:55:17.462Z,31.37
2019-01-23T11:57:45.965Z,31.00
2019-01-23T12:00:22.582Z,31.52
2019-01-23T12:02:51.122Z,33.33
2019-01-23T12:05:21.406Z,33.50
2019-01-23T12:07:50.600Z,31.93
2019-01-23T12:10:21.766Z,33.23
2019-01-23T12:12:50.614Z,33.00
2019-01-23T12:15:21.478Z,30.87
2019-01-23T12:17:50.042Z,32.20
2019-01-23T12:20:19.402Z,32.27
2019-01-23T12:22:48.080Z,34.00
2019-01-23T12:25:17.120Z,30.80
2019-01-23T12:27:46.015Z,33.97
2019-01-23T12:30:35.354Z,30.83
2019-01-23T12:33:04.294Z,32.90
2019-01-23T12:35:32.896Z,33.33
2019-01-23T12:38:01.468Z,32.70
2019-01-23T12:40:29.984Z,32.33
2019-01-23T12:43:01.016Z,35.47
2019-01-23T12:45:30.066Z,33.10
2019-01-23T12:47:58.929Z,34.90
2019-01-23T12:50:30.008Z,37.43
2019-01-23T12:52:59.468Z,35.30
2019-01-23T12:55:27.980Z,33.67
2019-01-23T12:57:57.000Z,33.77
2019-01-23T13:00:30.096Z,33.30
2019-01-23T13:03:00.085Z,33.40
2019-01-23T13:05:31.422Z,34.10
2019-01-23T13:07:59.962Z,30.93
2019-01-23T13:10:28.680Z,32.90
2019-01-23T13:12:57.368Z,33.73
2019-01-23T13:15:27.665Z,34.20
2019-01-23T13:17:56.770Z,33.90
2019-01-23T13:20:26.860Z,31.57
2019-01-23T13:22:55.985Z,35.50
2019-01-23T13:25:26.844Z,36.37
2019-01-23T13:27:57.273Z,33.67
2019-01-23T13:30:27.280Z,34.97
2019-01-23T13:32:56.350Z,34.50
2019-01-23T13:35:30.197Z,33.77
2019-01-23T13:37:58.738Z,35.97
2019-01-23T13:40:30.373Z,34.83
2019-01-23T13:42:58.812Z,35.50
2019-01-23T13:45:27.670Z,35.57
2019-01-23T13:47:57.513Z,34.13
2019-01-23T13:50:26.247Z,33.40
2019-01-23T13:52:55.027Z,33.00
2019-01-23T13:55:24.593Z,34.87
2019-01-23T13:57:53.124Z,32.83
2019-01-23T14:00:24.568Z,34.13
2019-01-23T14:02:53.190Z,34.33
2019-01-23T14:05:22.049Z,35.50
2019-01-23T14:07:50.568Z,33.47
2019-01-23T14:10:19.381Z,35.20
2019-01-23T14:12:48.240Z,35.30
2019-01-23T14:15:19.756Z,34.70
2019-01-23T14:17:48.532Z,34.70
2019-01-23T14:20:17.747Z,33.13
2019-01-23T14:22:46.262Z,36.47
2019-01-23T14:25:16.341Z,35.37
2019-01-23T14:27:45.623Z,35.37
2019-01-23T14:30:33.771Z,32.83
2019-01-23T14:33:03.277Z,34.73
2019-01-23T14:35:32.697Z,35.73
2019-01-23T14:38:01.163Z,37.83
2019-01-23T14:40:29.958Z,38.37
2019-01-23T14:42:58.529Z,39.17
2019-01-23T14:45:27.038Z,38.23
2019-01-23T14:47:55.585Z,35.30
2019-01-23T14:50:24.993Z,38.07
2019-01-23T14:52:54.186Z,35.47
2019-01-23T14:55:24.277Z,36.50
2019-01-23T14:57:52.941Z,36.57
2019-01-23T15:00:27.122Z,35.73
2019-01-23T15:02:55.691Z,37.77
2019-01-23T15:05:24.215Z,36.10
2019-01-23T15:07:53.173Z,34.33
2019-01-23T15:10:26.751Z,35.53
2019-01-23T15:12:55.457Z,38.20
2019-01-23T15:15:24.446Z,33.37
2019-01-23T15:17:53.629Z,37.13
2019-01-23T15:20:36.862Z,38.67
2019-01-23T15:23:05.822Z,38.37
2019-01-23T15:25:34.822Z,35.73
2019-01-23T15:28:04.151Z,36.93
2019-01-23T15:30:33.125Z,35.60
2019-01-23T15:33:01.885Z,34.40
2019-01-23T15:35:30.355Z,36.37
2019-01-23T15:37:58.985Z,35.03
2019-01-23T15:40:35.349Z,35.67
2019-01-23T15:43:04.185Z,36.43
2019-01-23T15:45:33.129Z,37.07
2019-01-23T15:48:01.597Z,36.20
2019-01-23T15:50:30.145Z,37.33
2019-01-23T15:52:58.601Z,38.97
2019-01-23T15:55:27.355Z,39.43
2019-01-23T15:57:55.922Z,36.60
2019-01-23T16:00:30.882Z,36.67
2019-01-23T16:02:59.462Z,35.57
2019-01-23T16:05:28.264Z,36.50
2019-01-23T16:07:56.827Z,34.17
2019-01-23T16:10:27.785Z,39.40
2019-01-23T16:12:57.885Z,33.83
2019-01-23T16:15:29.882Z,33.77
2019-01-23T16:17:58.405Z,38.17
2019-01-23T16:20:28.709Z,34.47
2019-01-23T16:23:00.853Z,39.50
2019-01-23T16:25:31.695Z,40.80
2019-01-23T16:28:01.323Z,38.93
2019-01-23T16:30:36.040Z,37.13
2019-01-23T16:33:05.165Z,33.30
2019-01-23T16:35:38.529Z,41.30
2019-01-23T16:38:06.191Z,42.20
2019-01-23T16:40:36.206Z,37.67
2019-01-23T16:43:06.630Z,39.27
2019-01-23T16:45:35.448Z,38.97
2019-01-23T16:48:05.021Z,40.77
2019-01-23T16:50:33.949Z,37.07
2019-01-23T16:53:02.816Z,40.30
2019-01-23T16:55:31.298Z,40.87
2019-01-23T16:58:00.305Z,39.90
2019-01-23T17:00:32.776Z,39.90
2019-01-23T17:03:02.818Z,40.00
2019-01-23T17:05:32.765Z,38.67
2019-01-23T17:08:02.758Z,42.40
2019-01-23T17:10:31.385Z,42.43
2019-01-23T17:13:01.105Z,41.57
2019-01-23T17:15:29.548Z,42.00
2019-01-23T17:17:58.420Z,39.77
2019-01-23T17:20:35.966Z,38.27
2019-01-23T17:23:05.166Z,41.40
2019-01-23T17:25:33.853Z,41.97
2019-01-23T17:28:03.312Z,41.43
2019-01-23T17:30:32.138Z,43.33
2019-01-23T17:33:00.617Z,42.90
2019-01-23T17:35:29.318Z,41.13
2019-01-23T17:37:58.113Z,39.43
2019-01-23T17:40:26.960Z,39.93
2019-01-23T17:42:55.800Z,38.97
2019-01-23T17:45:32.740Z,38.67
2019-01-23T17:48:01.622Z,38.13
2019-01-23T17:50:31.316Z,36.83
2019-01-23T17:52:59.801Z,38.03
2019-01-23T17:55:31.256Z,38.27
2019-01-23T17:57:59.776Z,36.30
2019-01-23T18:00:32.317Z,36.67
2019-01-23T18:03:00.900Z,36.73
2019-01-23T18:05:29.413Z,37.60
2019-01-23T18:07:58.382Z,41.00
2019-01-23T18:10:27.282Z,43.07
2019-01-23T18:12:56.004Z,40.67
2019-01-23T18:15:30.463Z,40.10
2019-01-23T18:17:59.212Z,35.57
2019-01-23T18:20:29.098Z,34.00
2019-01-23T18:22:59.321Z,36.80
2019-01-23T18:25:28.376Z,36.00
2019-01-23T18:27:57.278Z,39.97
2019-01-23T18:30:38.525Z,35.93
2019-01-23T18:33:10.717Z,35.40
2019-01-23T18:35:54.668Z,33.33
2019-01-23T18:38:38.480Z,35.20
2019-01-23T18:41:37.749Z,36.13
2019-01-23T18:44:27.860Z,33.53
2019-01-23T18:46:59.413Z,36.77
2019-01-23T18:49:33.836Z,37.10
2019-01-23T18:52:11.020Z,36.00
2019-01-23T18:54:39.832Z,35.80
2019-01-23T18:57:13.082Z,37.07
2019-01-23T18:59:41.984Z,34.50
2019-01-23T19:02:11.584Z,34.93
2019-01-23T19:04:40.385Z,37.03
2019-01-23T19:07:09.076Z,34.60
2019-01-23T19:09:38.929Z,36.97
2019-01-23T19:13:06.571Z,36.90
2019-01-23T19:15:35.019Z,35.90
2019-01-23T19:18:03.860Z,35.67
2019-01-23T19:20:32.769Z,37.40
2019-01-23T19:23:01.489Z,37.80
2019-01-23T19:25:30.419Z,39.30
2019-01-23T19:27:58.965Z,41.10
2019-01-23T19:30:27.477Z,35.67
2019-01-23T19:32:56.205Z,39.73
2019-01-23T19:35:24.685Z,37.83
2019-01-23T19:37:53.133Z,38.57
2019-01-23T19:40:21.980Z,38.70
2019-01-23T19:42:50.783Z,37.70
2019-01-23T19:45:21.118Z,39.87
2019-01-23T19:47:49.657Z,37.43
2019-01-23T19:50:18.550Z,37.70
2019-01-23T19:52:47.013Z,38.63
2019-01-23T19:55:16.617Z,37.90
2019-01-23T19:57:45.301Z,36.73
2019-01-23T20:00:16.841Z,36.00
2019-01-23T20:02:45.433Z,36.10
2019-01-23T20:05:17.217Z,38.00
2019-01-23T20:07:46.013Z,35.17
2019-01-23T20:10:17.645Z,35.83
2019-01-23T20:12:46.557Z,38.47
2019-01-23T20:15:17.369Z,36.50
2019-01-23T20:17:46.271Z,38.63
2019-01-23T20:20:15.985Z,38.27
2019-01-23T20:22:44.797Z,37.37
2019-01-23T20:25:18.446Z,39.37
2019-01-23T20:27:47.071Z,38.07
2019-01-23T20:30:18.693Z,38.70
2019-01-23T20:32:47.147Z,38.03
2019-01-23T20:35:16.010Z,38.90
2019-01-23T20:37:44.471Z,39.07
2019-01-23T20:40:14.059Z,39.00
2019-01-23T20:42:43.443Z,37.50
2019-01-23T20:45:14.347Z,38.43
2019-01-23T20:47:43.001Z,41.33
2019-01-23T20:50:22.454Z,40.50
2019-01-23T20:52:51.229Z,39.63
2019-01-23T20:55:20.298Z,37.70
2019-01-23T20:57:48.879Z,37.57
2019-01-23T21:00:22.716Z,39.07
2019-01-23T21:02:51.249Z,38.10
2019-01-23T21:05:19.804Z,37.60
2019-01-23T21:07:48.782Z,40.40
2019-01-23T21:10:20.218Z,38.57
2019-01-23T21:12:48.832Z,37.03
2019-01-23T21:15:20.736Z,38.77
2019-01-23T21:17:49.519Z,37.03
2019-01-23T21:20:18.446Z,36.53
2019-01-23T21:22:47.158Z,41.07
2019-01-23T21:25:16.185Z,38.50
2019-01-23T21:27:46.900Z,37.50
2019-01-23T21:30:19.081Z,38.50
2019-01-23T21:32:47.924Z,37.43
2019-01-23T21:35:17.173Z,36.80
2019-01-23T21:37:46.070Z,36.50
2019-01-23T21:40:23.913Z,37.97
2019-01-23T21:42:52.524Z,36.93
2019-01-23T21:45:22.606Z,35.00
2019-01-23T21:47:53.309Z,38.23
2019-01-23T21:50:27.651Z,38.67
2019-01-23T21:52:57.687Z,38.50
2019-01-23T21:55:29.385Z,34.07
2019-01-23T21:58:01.339Z,36.63
2019-01-23T22:00:33.020Z,39.47
2019-01-23T22:03:03.046Z,37.10
2019-01-23T22:05:31.572Z,36.97
2019-01-23T22:08:00.132Z,37.23
2019-01-23T22:10:29.420Z,37.93
2019-01-23T22:12:58.609Z,37.27
2019-01-23T22:15:29.918Z,36.43
2019-01-23T22:17:58.946Z,37.20
2019-01-23T22:20:29.659Z,35.07
2019-01-23T22:22:58.421Z,37.03
2019-01-23T22:25:28.118Z,38.97
2019-01-23T22:27:57.656Z,37.37
2019-01-23T22:30:35.250Z,38.70
2019-01-23T22:33:03.846Z,36.27
2019-01-23T22:35:33.321Z,37.00
2019-01-23T22:38:02.195Z,36.73
2019-01-23T22:40:32.311Z,36.97
2019-01-23T22:43:01.680Z,37.07
2019-01-23T22:45:30.727Z,36.20
2019-01-23T22:47:59.189Z,37.37
2019-01-23T22:50:28.124Z,36.33
2019-01-23T22:52:57.006Z,37.93
2019-01-23T22:55:25.470Z,35.20
2019-01-23T22:57:54.034Z,37.03
2019-01-23T23:00:37.050Z,37.60
2019-01-23T23:03:07.918Z,36.30
2019-01-23T23:05:36.452Z,34.30
2019-01-23T23:08:05.716Z,36.63
2019-01-23T23:10:34.289Z,37.73
2019-01-23T23:13:03.477Z,37.10
2019-01-23T23:15:32.382Z,35.87
2019-01-23T23:18:02.684Z,37.03
2019-01-23T23:20:31.477Z,37.93
2019-01-23T23:22:59.966Z,37.73
2019-01-23T23:25:28.838Z,35.37
2019-01-23T23:27:57.360Z,36.60
2019-01-23T23:30:29.130Z,35.50
2019-01-23T23:32:59.211Z,36.37
2019-01-23T23:35:30.832Z,34.57
2019-01-23T23:37:59.310Z,32.43
2019-01-23T23:40:27.864Z,34.87
2019-01-23T23:42:56.342Z,34.43
2019-01-23T23:45:25.124Z,35.07
2019-01-23T23:47:53.652Z,34.17
2019-01-23T23:50:22.352Z,35.70
2019-01-23T23:52:51.121Z,36.60
2019-01-23T23:55:19.654Z,35.17
2019-01-23T23:57:48.216Z,36.80
